createdAt,value
2023-04-10T00:00:07.283Z,1017.08
2023-04-10T00:01:09.437Z,1017.05
2023-04-10T00:02:07.764Z,1016.95
2023-04-10T00:03:08.276Z,1017.00
2023-04-10T00:04:08.211Z,1017.01
2023-04-10T00:05:08.359Z,1016.96
2023-04-10T00:06:08.292Z,1016.96
2023-04-10T00:07:08.486Z,1016.94
2023-04-10T00:08:08.648Z,1016.96
2023-04-10T00:09:08.810Z,1016.92
2023-04-10T00:10:08.956Z,1017.00
2023-04-10T00:11:09.799Z,1016.89
2023-04-10T00:12:09.307Z,1016.89
2023-04-10T00:13:10.468Z,1016.87
2023-04-10T00:14:09.593Z,1016.82
2023-04-10T00:15:09.772Z,1016.88
2023-04-10T00:16:09.988Z,1016.75
2023-04-10T00:17:10.158Z,1016.82
2023-04-10T00:18:10.329Z,1016.78
2023-04-10T00:19:10.468Z,1016.81
2023-04-10T00:20:10.590Z,1016.80
2023-04-10T00:21:11.785Z,1016.74
2023-04-10T00:22:11.449Z,1016.70
2023-04-10T00:23:11.129Z,1016.69
2023-04-10T00:24:11.338Z,1016.66
2023-04-10T00:25:12.427Z,1016.69
2023-04-10T00:26:11.764Z,1016.67
2023-04-10T00:27:14.436Z,1016.67
2023-04-10T00:28:12.000Z,1016.69
2023-04-10T00:29:12.257Z,1016.65
2023-04-10T00:30:12.410Z,1016.65
2023-04-10T00:31:14.429Z,1016.64
2023-04-10T00:32:12.824Z,1016.59
2023-04-10T00:33:13.437Z,1016.53
2023-04-10T00:34:14.013Z,1016.58
2023-04-10T00:35:13.336Z,1016.50
2023-04-10T00:36:14.022Z,1016.52
2023-04-10T00:37:13.674Z,1016.50
2023-04-10T00:38:13.805Z,1016.46
2023-04-10T00:39:14.004Z,1016.44
2023-04-10T00:40:14.501Z,1016.40
2023-04-10T00:41:14.939Z,1016.39
2023-04-10T00:42:14.934Z,1016.35
2023-04-10T00:43:14.596Z,1016.31
2023-04-10T00:44:15.473Z,1016.26
2023-04-10T00:45:14.958Z,1016.30
2023-04-10T00:46:15.170Z,1016.25
2023-04-10T00:47:15.291Z,1016.14
2023-04-10T00:48:15.476Z,1016.14
2023-04-10T00:49:16.476Z,1016.13
2023-04-10T00:50:15.900Z,1016.12
2023-04-10T00:51:16.086Z,1016.09
2023-04-10T00:52:16.278Z,1016.05
2023-04-10T00:53:17.468Z,1016.06
2023-04-10T00:54:16.663Z,1016.04
2023-04-10T00:55:16.869Z,1016.04
2023-04-10T00:56:17.065Z,1016.05
2023-04-10T00:57:18.009Z,1015.95
2023-04-10T00:58:17.497Z,1015.93
2023-04-10T00:59:17.559Z,1015.85
2023-04-10T01:00:18.449Z,1015.90
2023-04-10T01:01:17.982Z,1015.81
2023-04-10T01:02:18.671Z,1015.87
2023-04-10T01:03:18.466Z,1015.83
2023-04-10T01:04:18.566Z,1015.84
2023-04-10T01:05:18.659Z,1015.79
2023-04-10T01:06:18.840Z,1015.76
2023-04-10T01:07:19.080Z,1015.80
2023-04-10T01:08:19.233Z,1015.80
2023-04-10T01:09:19.408Z,1015.79
2023-04-10T01:10:20.449Z,1015.78
2023-04-10T01:11:20.512Z,1015.74
2023-04-10T01:12:20.942Z,1015.78
2023-04-10T01:13:20.088Z,1015.72
2023-04-10T01:14:20.252Z,1015.67
2023-04-10T01:15:20.441Z,1015.73
2023-04-10T01:16:20.686Z,1015.72
2023-04-10T01:17:20.796Z,1015.67
2023-04-10T01:18:21.956Z,1015.63
2023-04-10T01:19:21.100Z,1015.61
2023-04-10T01:20:21.982Z,1015.56
2023-04-10T01:21:21.987Z,1015.60
2023-04-10T01:22:22.446Z,1015.54
2023-04-10T01:23:22.825Z,1015.49
2023-04-10T01:24:21.954Z,1015.44
2023-04-10T01:25:22.137Z,1015.38
2023-04-10T01:26:22.952Z,1015.37
2023-04-10T01:27:23.005Z,1015.41
2023-04-10T01:28:22.704Z,1015.32
2023-04-10T01:29:22.879Z,1015.33
2023-04-10T01:30:23.040Z,1015.28
2023-04-10T01:31:23.292Z,1015.30
2023-04-10T01:32:24.034Z,1015.30
2023-04-10T01:33:23.528Z,1015.28
2023-04-10T01:34:24.512Z,1015.28
2023-04-10T01:35:23.929Z,1015.26
2023-04-10T01:36:24.524Z,1015.22
2023-04-10T01:37:25.951Z,1015.13
2023-04-10T01:38:24.469Z,1015.11
2023-04-10T01:39:25.487Z,1015.07
2023-04-10T01:40:24.770Z,1015.15
2023-04-10T01:41:24.979Z,1015.12
2023-04-10T01:42:25.159Z,1015.12
2023-04-10T01:43:26.951Z,1015.08
2023-04-10T01:44:25.537Z,1015.07
2023-04-10T01:45:25.707Z,1015.08
2023-04-10T01:46:25.885Z,1015.11
2023-04-10T01:47:26.101Z,1015.07
2023-04-10T01:48:26.264Z,1015.04
2023-04-10T01:49:27.967Z,1015.10
2023-04-10T01:50:26.596Z,1015.09
2023-04-10T01:51:26.741Z,1015.06
2023-04-10T01:52:27.528Z,1015.06
2023-04-10T01:53:27.034Z,1015.07
2023-04-10T01:54:27.170Z,1015.06
2023-04-10T01:55:27.960Z,1015.04
2023-04-10T01:56:27.476Z,1015.00
2023-04-10T01:57:27.671Z,1014.98
2023-04-10T01:58:27.857Z,1014.95
2023-04-10T01:59:28.004Z,1014.93
2023-04-10T02:00:28.272Z,1014.90
2023-04-10T02:01:30.253Z,1014.79
2023-04-10T02:02:30.639Z,1014.79
2023-04-10T02:03:30.682Z,1014.74
2023-04-10T02:04:28.914Z,1014.74
2023-04-10T02:05:29.984Z,1014.65
2023-04-10T02:06:30.965Z,1014.62
2023-04-10T02:07:29.230Z,1014.63
2023-04-10T02:08:29.411Z,1014.56
2023-04-10T02:09:29.611Z,1014.58
2023-04-10T02:10:29.805Z,1014.55
2023-04-10T02:11:30.009Z,1014.53
2023-04-10T02:12:30.156Z,1014.56
2023-04-10T02:13:31.014Z,1014.56
2023-04-10T02:14:30.565Z,1014.43
2023-04-10T02:15:30.797Z,1014.42
2023-04-10T02:16:33.516Z,1014.47
2023-04-10T02:17:33.057Z,1014.42
2023-04-10T02:18:31.206Z,1014.40
2023-04-10T02:19:31.384Z,1014.40
2023-04-10T02:20:31.614Z,1014.39
2023-04-10T02:21:32.958Z,1014.38
2023-04-10T02:22:31.971Z,1014.42
2023-04-10T02:23:32.154Z,1014.40
2023-04-10T02:24:32.347Z,1014.41
2023-04-10T02:25:32.522Z,1014.46
2023-04-10T02:26:32.708Z,1014.43
2023-04-10T02:27:33.461Z,1014.46
2023-04-10T02:28:32.994Z,1014.46
2023-04-10T02:29:33.983Z,1014.44
2023-04-10T02:30:33.384Z,1014.43
2023-04-10T02:31:33.582Z,1014.46
2023-04-10T02:32:33.839Z,1014.41
2023-04-10T02:33:33.909Z,1014.43
2023-04-10T02:34:34.093Z,1014.44
2023-04-10T02:35:34.298Z,1014.36
2023-04-10T02:36:35.962Z,1014.41
2023-04-10T02:37:35.498Z,1014.47
2023-04-10T02:38:34.852Z,1014.45
2023-04-10T02:39:34.985Z,1014.43
2023-04-10T02:40:35.137Z,1014.38
2023-04-10T02:41:35.967Z,1014.38
2023-04-10T02:42:35.457Z,1014.39
2023-04-10T02:43:35.610Z,1014.33
2023-04-10T02:44:35.757Z,1014.31
2023-04-10T02:45:35.907Z,1014.24
2023-04-10T02:46:36.099Z,1014.27
2023-04-10T02:47:37.025Z,1014.23
2023-04-10T02:48:36.442Z,1014.24
2023-04-10T02:49:36.648Z,1014.14
2023-04-10T02:50:36.813Z,1014.22
2023-04-10T02:51:37.017Z,1014.17
2023-04-10T02:52:37.217Z,1014.17
2023-04-10T02:53:37.973Z,1014.21
2023-04-10T02:54:37.488Z,1014.11
2023-04-10T02:55:37.679Z,1014.13
2023-04-10T02:56:37.875Z,1014.11
2023-04-10T02:57:39.473Z,1014.05
2023-04-10T02:58:38.217Z,1014.08
2023-04-10T02:59:38.392Z,1014.08
2023-04-10T03:00:39.469Z,1014.04
2023-04-10T03:01:38.801Z,1014.01
2023-04-10T03:02:39.224Z,1014.02
2023-04-10T03:03:39.253Z,1013.95
2023-04-10T03:04:39.442Z,1014.05
2023-04-10T03:05:40.967Z,1014.02
2023-04-10T03:06:40.489Z,1013.97
2023-04-10T03:07:40.467Z,1013.97
2023-04-10T03:08:40.973Z,1013.93
2023-04-10T03:09:41.008Z,1013.95
2023-04-10T03:10:40.373Z,1013.97
2023-04-10T03:11:40.548Z,1013.93
2023-04-10T03:12:40.689Z,1014.03
2023-04-10T03:13:40.869Z,1014.03
2023-04-10T03:14:41.020Z,1014.04
2023-04-10T03:15:41.166Z,1014.02
2023-04-10T03:16:41.346Z,1014.07
2023-04-10T03:17:42.551Z,1014.14
2023-04-10T03:18:42.976Z,1014.03
2023-04-10T03:19:41.975Z,1014.11
2023-04-10T03:20:43.774Z,1014.03
2023-04-10T03:21:43.019Z,1014.08
2023-04-10T03:22:42.512Z,1014.12
2023-04-10T03:23:43.478Z,1014.06
2023-04-10T03:24:42.846Z,1014.11
2023-04-10T03:25:42.939Z,1014.10
2023-04-10T03:26:44.193Z,1014.09
2023-04-10T03:27:43.397Z,1014.05
2023-04-10T03:28:43.539Z,1014.10
2023-04-10T03:29:43.702Z,1014.04
2023-04-10T03:30:44.979Z,1014.14
2023-04-10T03:31:44.109Z,1014.07
2023-04-10T03:32:44.292Z,1014.10
2023-04-10T03:33:44.587Z,1014.01
2023-04-10T03:34:44.673Z,1014.00
2023-04-10T03:35:44.847Z,1013.98
2023-04-10T03:36:45.045Z,1013.98
2023-04-10T03:37:45.181Z,1013.95
2023-04-10T03:38:45.970Z,1013.98
2023-04-10T03:39:45.491Z,1013.95
2023-04-10T03:40:45.659Z,1013.95
2023-04-10T03:41:46.472Z,1013.94
2023-04-10T03:42:45.945Z,1013.97
2023-04-10T03:43:46.130Z,1013.89
2023-04-10T03:44:46.309Z,1013.87
2023-04-10T03:45:46.440Z,1013.88
2023-04-10T03:46:46.687Z,1013.87
2023-04-10T03:47:46.801Z,1013.86
2023-04-10T03:48:46.994Z,1013.78
2023-04-10T03:49:47.166Z,1013.81
2023-04-10T03:50:47.309Z,1013.77
2023-04-10T03:51:47.487Z,1013.78
2023-04-10T03:52:47.639Z,1013.78
2023-04-10T03:53:47.804Z,1013.78
2023-04-10T03:54:48.975Z,1013.74
2023-04-10T03:55:48.206Z,1013.75
2023-04-10T03:56:49.480Z,1013.74
2023-04-10T03:57:49.475Z,1013.73
2023-04-10T03:58:48.737Z,1013.68
2023-04-10T03:59:48.894Z,1013.75
2023-04-10T04:00:50.020Z,1013.68
2023-04-10T04:01:49.310Z,1013.64
2023-04-10T04:02:49.608Z,1013.65
2023-04-10T04:03:49.814Z,1013.60
2023-04-10T04:04:50.618Z,1013.63
2023-04-10T04:05:50.074Z,1013.57
2023-04-10T04:06:50.238Z,1013.56
2023-04-10T04:07:50.432Z,1013.58
2023-04-10T04:08:50.628Z,1013.56
2023-04-10T04:09:51.496Z,1013.59
2023-04-10T04:10:51.044Z,1013.53
2023-04-10T04:11:51.215Z,1013.44
2023-04-10T04:12:51.982Z,1013.43
2023-04-10T04:13:51.864Z,1013.40
2023-04-10T04:14:52.479Z,1013.42
2023-04-10T04:15:52.009Z,1013.33
2023-04-10T04:16:52.178Z,1013.39
2023-04-10T04:17:52.391Z,1013.40
2023-04-10T04:18:53.483Z,1013.39
2023-04-10T04:19:52.747Z,1013.35
2023-04-10T04:20:52.916Z,1013.32
2023-04-10T04:21:53.085Z,1013.38
2023-04-10T04:22:53.273Z,1013.38
2023-04-10T04:23:55.490Z,1013.36
2023-04-10T04:24:53.584Z,1013.35
2023-04-10T04:25:53.770Z,1013.29
2023-04-10T04:26:53.941Z,1013.34
2023-04-10T04:27:54.139Z,1013.28
2023-04-10T04:28:54.973Z,1013.32
2023-04-10T04:29:54.551Z,1013.29
2023-04-10T04:30:55.534Z,1013.34
2023-04-10T04:31:54.944Z,1013.23
2023-04-10T04:32:56.076Z,1013.14
2023-04-10T04:33:56.056Z,1013.20
2023-04-10T04:34:56.487Z,1013.18
2023-04-10T04:35:55.757Z,1013.13
2023-04-10T04:36:55.922Z,1013.18
2023-04-10T04:37:56.076Z,1013.09
2023-04-10T04:38:56.207Z,1013.12
2023-04-10T04:39:57.502Z,1013.09
2023-04-10T04:40:56.519Z,1013.16
2023-04-10T04:41:56.675Z,1013.08
2023-04-10T04:42:57.488Z,1013.13
2023-04-10T04:43:56.980Z,1013.10
2023-04-10T04:44:57.143Z,1013.12
2023-04-10T04:45:58.559Z,1013.06
2023-04-10T04:46:57.421Z,1013.08
2023-04-10T04:47:57.701Z,1013.10
2023-04-10T04:48:57.760Z,1013.06
2023-04-10T04:49:57.970Z,1013.03
2023-04-10T04:50:58.116Z,1012.99
2023-04-10T04:51:58.267Z,1013.02
2023-04-10T04:52:58.449Z,1012.99
2023-04-10T04:53:58.596Z,1013.03
2023-04-10T04:54:58.767Z,1013.00
2023-04-10T04:55:58.919Z,1012.96
2023-04-10T04:56:59.057Z,1012.95
2023-04-10T04:57:59.237Z,1012.87
2023-04-10T04:59:00.056Z,1012.87
2023-04-10T05:00:00.491Z,1012.86
2023-04-10T05:01:00.580Z,1012.87
2023-04-10T05:02:01.719Z,1012.81
2023-04-10T05:03:01.106Z,1012.79
2023-04-10T05:04:01.109Z,1012.80
2023-04-10T05:05:01.366Z,1012.78
2023-04-10T05:06:00.756Z,1012.76
2023-04-10T05:07:01.507Z,1012.71
2023-04-10T05:08:02.035Z,1012.57
2023-04-10T05:09:03.515Z,1012.59
2023-04-10T05:10:01.478Z,1012.58
2023-04-10T05:11:01.636Z,1012.63
2023-04-10T05:12:01.773Z,1012.53
2023-04-10T05:13:02.498Z,1012.46
2023-04-10T05:14:02.118Z,1012.50
2023-04-10T05:15:02.991Z,1012.50
2023-04-10T05:16:02.530Z,1012.43
2023-04-10T05:17:03.854Z,1012.45
2023-04-10T05:18:03.970Z,1012.43
2023-04-10T05:19:04.491Z,1012.30
2023-04-10T05:20:03.340Z,1012.32
2023-04-10T05:21:03.489Z,1012.31
2023-04-10T05:22:03.630Z,1012.26
2023-04-10T05:23:04.508Z,1012.27
2023-04-10T05:24:05.016Z,1012.18
2023-04-10T05:25:04.996Z,1012.22
2023-04-10T05:26:04.983Z,1012.26
2023-04-10T05:27:05.504Z,1012.24
2023-04-10T05:28:04.630Z,1012.16
2023-04-10T05:29:05.501Z,1012.21
2023-04-10T05:30:06.009Z,1012.26
2023-04-10T05:31:06.027Z,1012.22
2023-04-10T05:32:05.443Z,1012.11
2023-04-10T05:33:06.537Z,1012.13
2023-04-10T05:34:06.532Z,1012.02
2023-04-10T05:35:06.002Z,1012.01
2023-04-10T05:36:06.239Z,1012.00
2023-04-10T05:37:07.507Z,1011.92
2023-04-10T05:38:06.523Z,1011.91
2023-04-10T05:39:09.005Z,1011.92
2023-04-10T05:40:06.887Z,1011.77
2023-04-10T05:41:07.106Z,1011.78
2023-04-10T05:42:09.004Z,1011.79
2023-04-10T05:43:08.028Z,1011.64
2023-04-10T05:44:07.680Z,1011.67
2023-04-10T05:45:07.857Z,1011.73
2023-04-10T05:46:08.093Z,1011.68
2023-04-10T05:47:08.291Z,1011.74
2023-04-10T05:48:09.511Z,1011.51
2023-04-10T05:49:09.373Z,1011.50
2023-04-10T05:50:08.801Z,1011.45
2023-04-10T05:51:08.983Z,1011.28
2023-04-10T05:52:09.198Z,1011.12
2023-04-10T05:53:10.056Z,1011.01
2023-04-10T05:54:09.592Z,1010.93
2023-04-10T05:55:09.772Z,1010.87
2023-04-10T05:56:10.695Z,1010.86
2023-04-10T05:57:10.123Z,1010.96
2023-04-10T05:58:11.049Z,1010.97
2023-04-10T05:59:11.000Z,1011.01
2023-04-10T06:00:10.665Z,1011.03
2023-04-10T06:01:10.851Z,1011.03
2023-04-10T06:02:11.043Z,1011.05
2023-04-10T06:03:12.056Z,1011.07
2023-04-10T06:04:12.129Z,1011.01
2023-04-10T06:05:11.508Z,1011.00
2023-04-10T06:06:11.709Z,1011.08
2023-04-10T06:07:13.007Z,1011.07
2023-04-10T06:08:12.566Z,1011.07
2023-04-10T06:09:12.359Z,1011.04
2023-04-10T06:10:12.538Z,1011.04
2023-04-10T06:11:12.712Z,1011.07
2023-04-10T06:12:13.504Z,1011.02
2023-04-10T06:13:14.896Z,1011.08
2023-04-10T06:14:13.329Z,1011.00
2023-04-10T06:15:13.537Z,1011.07
2023-04-10T06:16:14.523Z,1011.06
2023-04-10T06:17:13.960Z,1010.98
2023-04-10T06:18:15.067Z,1010.97
2023-04-10T06:19:14.558Z,1010.90
2023-04-10T06:20:15.375Z,1010.92
2023-04-10T06:21:14.658Z,1010.87
2023-04-10T06:22:15.003Z,1010.92
2023-04-10T06:23:14.968Z,1010.79
2023-04-10T06:24:15.170Z,1010.79
2023-04-10T06:25:15.379Z,1010.72
2023-04-10T06:26:15.547Z,1010.72
2023-04-10T06:27:16.508Z,1010.64
2023-04-10T06:28:15.913Z,1010.61
2023-04-10T06:29:16.098Z,1010.61
2023-04-10T06:30:16.272Z,1010.42
2023-04-10T06:31:16.493Z,1010.40
2023-04-10T06:32:16.707Z,1010.20
2023-04-10T06:33:16.853Z,1010.24
2023-04-10T06:34:17.033Z,1010.06
2023-04-10T06:35:17.881Z,1009.94
2023-04-10T06:36:17.449Z,1009.63
2023-04-10T06:37:17.635Z,1009.15
2023-04-10T06:38:17.768Z,1008.87
2023-04-10T06:39:20.018Z,1008.53
2023-04-10T06:40:18.150Z,1008.43
2023-04-10T06:41:19.112Z,1008.04
2023-04-10T06:42:18.553Z,1007.75
2023-04-10T06:43:19.566Z,1007.38
2023-04-10T06:44:18.817Z,1007.06
2023-04-10T06:45:18.985Z,1006.84
2023-04-10T06:46:20.900Z,1006.76
2023-04-10T06:47:19.318Z,1006.26
2023-04-10T06:48:19.514Z,1005.62
2023-04-10T06:49:19.671Z,1005.34
2023-04-10T06:50:19.812Z,1005.31
2023-04-10T06:51:20.003Z,1004.82
2023-04-10T06:52:20.586Z,1004.53
2023-04-10T06:53:20.388Z,1004.61
2023-04-10T06:54:20.559Z,1004.93
2023-04-10T06:55:21.584Z,1004.83
2023-04-10T06:56:20.995Z,1005.21
2023-04-10T06:57:21.299Z,1005.94
2023-04-10T06:58:21.424Z,1006.37
2023-04-10T06:59:21.597Z,1006.76
2023-04-10T07:00:21.773Z,1006.97
2023-04-10T07:01:22.636Z,1006.77
2023-04-10T07:02:22.361Z,1006.35
2023-04-10T07:03:22.433Z,1005.82
2023-04-10T07:04:22.638Z,1005.28
2023-04-10T07:05:23.904Z,1004.89
2023-04-10T07:06:22.959Z,1004.65
2023-04-10T07:07:24.028Z,1004.72
2023-04-10T07:08:23.312Z,1004.44
2023-04-10T07:09:23.533Z,1004.36
2023-04-10T07:10:24.478Z,1004.20
2023-04-10T07:11:23.870Z,1004.18
2023-04-10T07:12:24.036Z,1003.99
2023-04-10T07:13:25.033Z,1003.84
2023-04-10T07:14:25.074Z,1003.59
2023-04-10T07:15:24.615Z,1003.25
2023-04-10T07:16:24.848Z,1003.18
2023-04-10T07:17:25.074Z,1003.22
2023-04-10T07:18:27.085Z,1003.12
2023-04-10T07:19:25.451Z,1003.43
2023-04-10T07:20:25.624Z,1003.31
2023-04-10T07:21:25.760Z,1003.44
2023-04-10T07:22:25.951Z,1003.59
2023-04-10T07:23:27.077Z,1003.55
2023-04-10T07:24:26.329Z,1003.53
2023-04-10T07:25:27.079Z,1003.45
2023-04-10T07:26:26.682Z,1003.05
2023-04-10T07:27:26.813Z,1003.01
2023-04-10T07:28:26.955Z,1003.13
2023-04-10T07:29:27.133Z,1002.91
2023-04-10T07:30:27.295Z,1002.86
2023-04-10T07:31:28.213Z,1003.04
2023-04-10T07:32:27.871Z,1003.41
2023-04-10T07:33:28.942Z,1004.10
2023-04-10T07:34:28.049Z,1004.48
2023-04-10T07:35:28.259Z,1004.97
2023-04-10T07:36:29.039Z,1005.34
2023-04-10T07:37:28.548Z,1005.73
2023-04-10T07:38:29.540Z,1005.94
2023-04-10T07:39:28.941Z,1006.18
2023-04-10T07:40:29.149Z,1006.38
2023-04-10T07:41:30.420Z,1006.16
2023-04-10T07:42:29.585Z,1005.91
2023-04-10T07:43:30.580Z,1005.57
2023-04-10T07:44:31.540Z,1005.32
2023-04-10T07:45:30.252Z,1005.24
2023-04-10T07:46:31.047Z,1005.29
2023-04-10T07:47:30.528Z,1005.43
2023-04-10T07:48:30.577Z,1005.64
2023-04-10T07:49:31.549Z,1005.63
2023-04-10T07:50:30.965Z,1005.69
2023-04-10T07:51:31.153Z,1005.81
2023-04-10T07:52:31.376Z,1006.00
2023-04-10T07:53:33.052Z,1006.19
2023-04-10T07:54:31.806Z,1006.27
2023-04-10T07:55:32.017Z,1006.45
2023-04-10T07:56:32.190Z,1006.67
2023-04-10T07:57:32.505Z,1006.53
2023-04-10T07:58:32.605Z,1006.50
2023-04-10T07:59:32.806Z,1005.90
2023-04-10T08:00:33.565Z,1005.51
2023-04-10T08:01:33.230Z,1005.17
2023-04-10T08:02:33.505Z,1004.81
2023-04-10T08:03:34.593Z,1004.81
2023-04-10T08:04:34.673Z,1004.86
2023-04-10T08:05:33.901Z,1004.69
2023-04-10T08:06:34.927Z,1004.68
2023-04-10T08:07:34.245Z,1004.66
2023-04-10T08:08:35.051Z,1004.64
2023-04-10T08:09:35.554Z,1004.65
2023-04-10T08:10:34.695Z,1004.63
2023-04-10T08:11:37.300Z,1004.64
2023-04-10T08:12:35.041Z,1004.83
2023-04-10T08:13:35.243Z,1004.85
2023-04-10T08:14:35.632Z,1004.91
2023-04-10T08:15:35.555Z,1004.99
2023-04-10T08:16:35.743Z,1004.93
2023-04-10T08:17:35.931Z,1004.64
2023-04-10T08:18:36.109Z,1004.55
2023-04-10T08:19:36.399Z,1004.29
2023-04-10T08:20:36.439Z,1004.31
2023-04-10T08:21:36.606Z,1004.20
2023-04-10T08:22:37.553Z,1004.21
2023-04-10T08:23:36.968Z,1004.22
2023-04-10T08:24:37.169Z,1004.11
2023-04-10T08:25:38.057Z,1004.12
2023-04-10T08:26:38.091Z,1004.21
2023-04-10T08:27:38.560Z,1004.29
2023-04-10T08:28:37.847Z,1004.38
2023-04-10T08:29:38.001Z,1004.66
2023-04-10T08:30:38.244Z,1004.40
2023-04-10T08:31:38.310Z,1004.78
2023-04-10T08:32:38.478Z,1004.59
2023-04-10T08:33:39.561Z,1004.60
2023-04-10T08:34:39.584Z,1004.71
2023-04-10T08:35:39.606Z,1004.72
2023-04-10T08:36:39.131Z,1004.73
2023-04-10T08:37:40.277Z,1004.67
2023-04-10T08:38:39.624Z,1004.56
2023-04-10T08:39:39.674Z,1004.72
2023-04-10T08:40:39.828Z,1004.87
2023-04-10T08:41:39.967Z,1005.09
2023-04-10T08:42:40.137Z,1005.32
2023-04-10T08:43:40.317Z,1005.33
2023-04-10T08:44:41.100Z,1005.51
2023-04-10T08:45:41.603Z,1005.73
2023-04-10T08:46:40.805Z,1005.70
2023-04-10T08:47:40.964Z,1005.68
2023-04-10T08:48:41.018Z,1005.69
2023-04-10T08:49:41.174Z,1005.59
2023-04-10T08:50:42.109Z,1005.55
2023-04-10T08:51:42.104Z,1005.34
2023-04-10T08:52:42.566Z,1005.37
2023-04-10T08:53:41.829Z,1005.36
2023-04-10T08:54:42.003Z,1005.15
2023-04-10T08:55:42.162Z,1005.02
2023-04-10T08:56:42.321Z,1004.96
2023-04-10T08:57:47.850Z,1004.69
2023-04-10T08:58:44.697Z,1004.65
2023-04-10T08:59:42.796Z,1004.63
2023-04-10T09:00:42.954Z,1004.62
2023-04-10T09:01:43.228Z,1004.69
2023-04-10T09:02:43.410Z,1004.57
2023-04-10T09:03:43.786Z,1004.47
2023-04-10T09:04:43.743Z,1004.49
2023-04-10T09:05:43.815Z,1004.40
2023-04-10T09:06:44.973Z,1004.30
2023-04-10T09:07:44.105Z,1004.26
2023-04-10T09:08:45.937Z,1004.19
2023-04-10T09:09:44.446Z,1004.33
2023-04-10T09:10:44.630Z,1004.27
2023-04-10T09:11:44.791Z,1004.40
2023-04-10T09:12:46.068Z,1004.38
2023-04-10T09:13:46.072Z,1004.28
2023-04-10T09:14:45.422Z,1004.45
2023-04-10T09:15:45.597Z,1004.17
2023-04-10T09:16:45.781Z,1004.23
2023-04-10T09:17:46.650Z,1004.14
2023-04-10T09:18:46.175Z,1004.08
2023-04-10T09:19:46.365Z,1004.10
2023-04-10T09:20:46.532Z,1003.90
2023-04-10T09:21:48.572Z,1003.79
2023-04-10T09:22:47.613Z,1004.15
2023-04-10T09:23:46.989Z,1004.10
2023-04-10T09:24:48.078Z,1004.21
2023-04-10T09:25:49.326Z,1004.32
2023-04-10T09:26:47.575Z,1004.51
2023-04-10T09:27:47.744Z,1004.44
2023-04-10T09:28:48.637Z,1004.43
2023-04-10T09:29:48.160Z,1004.43
2023-04-10T09:30:48.349Z,1004.36
2023-04-10T09:31:48.636Z,1004.62
2023-04-10T09:32:48.743Z,1004.36
2023-04-10T09:33:49.594Z,1004.28
2023-04-10T09:34:50.575Z,1004.32
2023-04-10T09:35:49.194Z,1004.30
2023-04-10T09:36:49.348Z,1004.31
2023-04-10T09:37:49.487Z,1004.12
2023-04-10T09:38:49.658Z,1004.03
2023-04-10T09:39:49.936Z,1004.12
2023-04-10T09:40:52.347Z,1004.04
2023-04-10T09:41:50.198Z,1004.13
2023-04-10T09:42:50.365Z,1003.99
2023-04-10T09:43:50.539Z,1004.07
2023-04-10T09:44:50.713Z,1003.96
2023-04-10T09:45:51.640Z,1003.93
2023-04-10T09:46:51.680Z,1004.04
2023-04-10T09:47:51.267Z,1004.01
2023-04-10T09:48:51.426Z,1003.97
2023-04-10T09:49:52.130Z,1003.93
2023-04-10T09:50:51.785Z,1004.18
2023-04-10T09:51:52.581Z,1004.14
2023-04-10T09:52:53.080Z,1004.26
2023-04-10T09:53:53.341Z,1004.22
2023-04-10T09:54:53.128Z,1004.33
2023-04-10T09:55:53.621Z,1004.41
2023-04-10T09:56:55.087Z,1004.48
2023-04-10T09:57:54.081Z,1004.44
2023-04-10T09:58:53.545Z,1004.45
2023-04-10T09:59:53.380Z,1004.51
2023-04-10T10:00:53.521Z,1004.55
2023-04-10T10:01:53.709Z,1004.63
2023-04-10T10:02:54.038Z,1004.57
2023-04-10T10:03:54.050Z,1004.65
2023-04-10T10:04:54.152Z,1004.67
2023-04-10T10:05:54.344Z,1004.66
2023-04-10T10:06:56.956Z,1004.61
2023-04-10T10:07:54.684Z,1004.67
2023-04-10T10:08:54.919Z,1004.76
2023-04-10T10:09:55.038Z,1004.74
2023-04-10T10:10:55.179Z,1004.77
2023-04-10T10:11:56.092Z,1004.82
2023-04-10T10:12:55.457Z,1004.82
2023-04-10T10:13:55.601Z,1004.99
2023-04-10T10:14:55.787Z,1004.94
2023-04-10T10:15:56.001Z,1004.97
2023-04-10T10:16:57.113Z,1004.94
2023-04-10T10:17:56.447Z,1004.85
2023-04-10T10:18:56.832Z,1004.91
2023-04-10T10:19:56.770Z,1004.82
2023-04-10T10:20:56.940Z,1004.84
2023-04-10T10:21:57.964Z,1004.80
2023-04-10T10:22:57.217Z,1004.90
2023-04-10T10:23:59.099Z,1004.65
2023-04-10T10:24:57.632Z,1004.82
2023-04-10T10:25:57.828Z,1004.74
2023-04-10T10:26:58.024Z,1004.66
2023-04-10T10:27:58.184Z,1004.74
2023-04-10T10:29:00.119Z,1004.65
2023-04-10T10:29:59.748Z,1004.50
2023-04-10T10:30:58.737Z,1004.53
2023-04-10T10:31:59.009Z,1004.46
2023-04-10T10:32:59.802Z,1004.51
2023-04-10T10:33:59.315Z,1004.41
2023-04-10T10:34:59.485Z,1004.39
2023-04-10T10:36:00.183Z,1004.46
2023-04-10T10:37:01.603Z,1004.51
2023-04-10T10:38:00.023Z,1004.58
2023-04-10T10:39:00.188Z,1004.57
2023-04-10T10:40:01.152Z,1004.50
2023-04-10T10:41:00.539Z,1004.62
2023-04-10T10:42:00.715Z,1004.47
2023-04-10T10:43:01.166Z,1004.62
2023-04-10T10:44:01.061Z,1004.55
2023-04-10T10:45:02.148Z,1004.74
2023-04-10T10:46:02.516Z,1004.57
2023-04-10T10:47:01.549Z,1004.50
2023-04-10T10:48:01.848Z,1004.50
2023-04-10T10:49:01.931Z,1004.49
2023-04-10T10:50:02.124Z,1004.42
2023-04-10T10:51:02.391Z,1004.48
2023-04-10T10:52:02.480Z,1004.42
2023-04-10T10:53:02.754Z,1004.53
2023-04-10T10:54:02.833Z,1004.53
2023-04-10T10:55:03.024Z,1004.42
2023-04-10T10:56:03.213Z,1004.51
2023-04-10T10:57:03.395Z,1004.53
2023-04-10T10:58:04.111Z,1004.65
2023-04-10T10:59:03.760Z,1004.76
2023-04-10T11:00:03.942Z,1004.73
2023-04-10T11:01:05.665Z,1004.73
2023-04-10T11:02:04.505Z,1004.79
2023-04-10T11:03:04.639Z,1004.78
2023-04-10T11:04:04.935Z,1004.82
2023-04-10T11:05:05.021Z,1004.85
2023-04-10T11:06:05.214Z,1004.93
2023-04-10T11:07:05.437Z,1004.94
2023-04-10T11:08:05.638Z,1004.94
2023-04-10T11:09:06.630Z,1004.87
2023-04-10T11:10:06.056Z,1004.86
2023-04-10T11:11:07.016Z,1004.86
2023-04-10T11:12:07.125Z,1004.87
2023-04-10T11:13:07.615Z,1004.82
2023-04-10T11:14:07.623Z,1004.79
2023-04-10T11:15:07.021Z,1004.87
2023-04-10T11:16:09.146Z,1004.76
2023-04-10T11:17:07.450Z,1004.82
2023-04-10T11:18:07.561Z,1004.81
2023-04-10T11:19:14.187Z,1004.76
2023-04-10T11:20:09.966Z,1004.66
2023-04-10T11:21:08.624Z,1004.77
2023-04-10T11:22:08.612Z,1004.65
2023-04-10T11:23:09.236Z,1004.82
2023-04-10T11:24:08.615Z,1004.80
2023-04-10T11:25:08.792Z,1004.69
2023-04-10T11:26:09.628Z,1004.77
2023-04-10T11:27:09.171Z,1004.73
2023-04-10T11:28:10.130Z,1004.63
2023-04-10T11:29:09.518Z,1004.80
2023-04-10T11:30:09.700Z,1004.81
2023-04-10T11:31:11.628Z,1004.78
2023-04-10T11:32:10.300Z,1004.64
2023-04-10T11:33:10.339Z,1004.83
2023-04-10T11:34:10.537Z,1004.80
2023-04-10T11:35:10.762Z,1004.79
2023-04-10T11:36:10.928Z,1004.68
2023-04-10T11:37:11.107Z,1004.63
2023-04-10T11:38:11.275Z,1004.55
2023-04-10T11:39:11.449Z,1004.39
2023-04-10T11:40:12.638Z,1004.43
2023-04-10T11:41:11.783Z,1004.31
2023-04-10T11:42:12.626Z,1004.27
2023-04-10T11:43:12.155Z,1004.20
2023-04-10T11:44:13.166Z,1004.08
2023-04-10T11:45:12.586Z,1004.11
2023-04-10T11:46:12.837Z,1004.18
2023-04-10T11:47:12.906Z,1004.02
2023-04-10T11:48:13.062Z,1003.98
2023-04-10T11:49:13.227Z,1003.77
2023-04-10T11:50:13.463Z,1003.90
2023-04-10T11:51:13.550Z,1003.95
2023-04-10T11:52:13.716Z,1003.90
2023-04-10T11:53:13.886Z,1003.85
2023-04-10T11:54:14.078Z,1003.93
2023-04-10T11:55:14.253Z,1003.97
2023-04-10T11:56:14.427Z,1003.85
2023-04-10T11:57:14.660Z,1003.90
2023-04-10T11:58:14.844Z,1003.85
2023-04-10T11:59:15.023Z,1003.77
2023-04-10T12:00:15.178Z,1003.84
2023-04-10T12:01:15.356Z,1003.73
2023-04-10T12:02:15.797Z,1003.74
2023-04-10T12:03:15.813Z,1003.65
2023-04-10T12:04:15.920Z,1003.76
2023-04-10T12:05:16.065Z,1003.66
2023-04-10T12:06:17.633Z,1003.63
2023-04-10T12:07:16.257Z,1003.78